createdAt,value
2023-01-21T00:01:31.484Z,21.13
2023-01-21T00:06:34.034Z,14.93
2023-01-21T00:11:36.830Z,21.37
2023-01-21T00:16:39.443Z,17.83
2023-01-21T00:21:42.127Z,19.33
2023-01-21T00:26:44.692Z,19.43
2023-01-21T00:31:47.591Z,19.60
2023-01-21T00:36:50.302Z,20.50
2023-01-21T00:41:52.877Z,18.00
2023-01-21T00:46:55.472Z,20.13
2023-01-21T00:51:58.067Z,18.13
2023-01-21T00:57:00.656Z,15.47
2023-01-21T01:02:03.779Z,18.90
2023-01-21T01:07:06.649Z,18.43
2023-01-21T01:12:09.158Z,19.23
2023-01-21T01:17:11.730Z,18.70
2023-01-21T01:22:14.242Z,17.77
2023-01-21T01:27:16.798Z,19.33
2023-01-21T01:32:19.291Z,18.17
2023-01-21T01:37:22.266Z,15.40
2023-01-21T01:42:24.922Z,23.10
2023-01-21T01:47:51.157Z,19.23
2023-01-21T01:52:55.156Z,21.13
2023-01-21T01:57:59.105Z,17.30
2023-01-21T02:03:20.335Z,18.67
2023-01-21T02:08:23.845Z,18.67
2023-01-21T02:13:28.595Z,19.20
2023-01-21T02:18:52.648Z,20.77
2023-01-21T02:24:00.791Z,19.30
2023-01-21T02:29:19.074Z,16.30
2023-01-21T02:34:32.749Z,11.93
2023-01-21T02:39:41.088Z,18.47
2023-01-21T02:44:50.687Z,14.57
2023-01-21T02:50:28.558Z,16.40
2023-01-21T02:55:35.650Z,18.43
2023-01-21T03:01:05.730Z,16.57
2023-01-21T03:06:20.048Z,14.20
2023-01-21T03:11:23.462Z,16.80
2023-01-21T03:16:49.671Z,18.67
2023-01-21T03:21:54.170Z,14.73
2023-01-21T03:27:00.208Z,13.47
2023-01-21T03:32:06.390Z,14.37
2023-01-21T03:37:14.820Z,10.90
2023-01-21T03:42:17.743Z,15.40
2023-01-21T03:47:26.515Z,14.97
2023-01-21T03:52:29.417Z,13.73
2023-01-21T03:57:31.894Z,14.80
2023-01-21T04:02:34.664Z,11.83
2023-01-21T04:07:37.195Z,15.33
2023-01-21T04:12:40.657Z,15.10
2023-01-21T04:17:43.104Z,6.07
2023-01-21T04:22:45.752Z,12.03
2023-01-21T04:27:48.207Z,10.70
2023-01-21T04:32:50.781Z,9.80
2023-01-21T04:37:53.346Z,11.50
2023-01-21T04:42:56.235Z,14.27
2023-01-21T04:47:58.844Z,13.80
2023-01-21T04:53:01.406Z,13.43
2023-01-21T04:58:04.015Z,13.83
2023-01-21T05:03:06.753Z,12.40
2023-01-21T05:08:09.195Z,11.03
2023-01-21T05:13:11.801Z,12.50
2023-01-21T05:18:14.338Z,12.17
2023-01-21T05:23:16.956Z,12.77
2023-01-21T05:28:19.461Z,11.17
2023-01-21T05:33:26.336Z,12.67
2023-01-21T05:38:29.367Z,11.87
2023-01-21T05:43:32.470Z,11.93
2023-01-21T05:48:35.057Z,9.60
2023-01-21T05:53:37.563Z,11.50
2023-01-21T05:58:40.147Z,11.57
2023-01-21T06:03:42.794Z,11.90
2023-01-21T06:08:45.278Z,10.50
2023-01-21T06:13:47.918Z,8.80
2023-01-21T06:18:50.534Z,5.43
2023-01-21T06:23:53.105Z,11.20
2023-01-21T06:28:57.184Z,7.03
2023-01-21T06:33:59.810Z,8.40
2023-01-21T06:39:02.321Z,8.20
2023-01-21T06:44:05.642Z,7.30
2023-01-21T06:49:08.185Z,8.20
2023-01-21T06:54:11.504Z,7.60
2023-01-21T06:59:14.113Z,8.57
2023-01-21T07:04:16.636Z,7.23
2023-01-21T07:09:19.843Z,4.70
2023-01-21T07:14:22.524Z,7.37
2023-01-21T07:19:25.041Z,7.10
2023-01-21T07:24:27.595Z,5.80
2023-01-21T07:29:30.160Z,6.77
2023-01-21T07:34:32.939Z,5.50
2023-01-21T07:39:35.527Z,5.57
2023-01-21T07:44:37.987Z,6.40
2023-01-21T07:49:41.104Z,4.70
2023-01-21T07:54:43.684Z,4.37
2023-01-21T07:59:46.230Z,6.10
2023-01-21T08:04:48.856Z,5.63
2023-01-21T08:09:51.447Z,4.87
2023-01-21T08:14:54.223Z,4.73
2023-01-21T08:19:57.391Z,5.27
2023-01-21T08:24:59.876Z,5.90
2023-01-21T08:30:02.340Z,6.93
2023-01-21T08:35:05.452Z,5.23
2023-01-21T08:40:08.791Z,4.07
2023-01-21T08:45:12.750Z,4.00
2023-01-21T08:50:16.717Z,5.10
2023-01-21T08:55:19.449Z,5.03
2023-01-21T09:00:23.891Z,4.30
2023-01-21T09:05:26.596Z,3.63
2023-01-21T09:10:47.592Z,3.53
2023-01-21T09:15:50.111Z,5.50
2023-01-21T09:20:52.981Z,5.03
2023-01-21T09:26:07.112Z,5.13
2023-01-21T09:31:13.905Z,5.13
2023-01-21T09:36:20.074Z,4.20
2023-01-21T09:41:40.475Z,4.00
2023-01-21T09:47:47.280Z,4.83
2023-01-21T09:52:59.944Z,5.17
2023-01-21T09:58:02.422Z,6.30
2023-01-21T10:03:05.081Z,4.77
2023-01-21T10:08:18.369Z,5.00
2023-01-21T10:13:42.392Z,3.43
2023-01-21T10:18:48.734Z,3.47
2023-01-21T10:24:01.169Z,3.33
2023-01-21T10:29:04.459Z,3.77
2023-01-21T10:34:14.997Z,2.60
2023-01-21T10:39:34.833Z,2.77
2023-01-21T10:45:15.485Z,3.27
2023-01-21T10:50:44.770Z,2.47
2023-01-21T10:55:59.143Z,3.10
2023-01-21T11:01:06.964Z,2.07
2023-01-21T11:06:13.488Z,1.87
2023-01-21T11:11:26.469Z,2.23
2023-01-21T11:16:45.403Z,2.63
2023-01-21T11:22:00.918Z,2.20
2023-01-21T11:27:03.574Z,1.87
2023-01-21T11:32:18.390Z,1.47
2023-01-21T11:37:26.400Z,1.90
2023-01-21T11:42:28.925Z,1.70
2023-01-21T11:47:53.763Z,1.47
2023-01-21T11:53:08.985Z,1.83
2023-01-21T11:58:23.835Z,1.67
2023-01-21T12:03:33.461Z,2.00
2023-01-21T12:08:38.732Z,1.40
2023-01-21T12:13:46.876Z,1.67
2023-01-21T12:19:03.100Z,1.50
2023-01-21T12:25:02.191Z,2.57
2023-01-21T12:30:16.521Z,1.90
2023-01-21T12:35:38.105Z,2.50
2023-01-21T12:40:46.657Z,2.33
2023-01-21T12:46:15.755Z,1.37
2023-01-21T12:51:27.399Z,1.20
2023-01-21T12:56:39.338Z,1.40
2023-01-21T13:01:53.597Z,1.50
2023-01-21T13:07:02.947Z,1.37
2023-01-21T13:12:17.352Z,1.20
2023-01-21T13:17:23.617Z,1.80
2023-01-21T13:23:05.056Z,1.90
2023-01-21T13:28:21.307Z,1.27
2023-01-21T13:33:35.517Z,1.53
2023-01-21T13:39:30.597Z,1.13
2023-01-21T13:44:45.197Z,1.50
2023-01-21T13:49:50.877Z,1.17
2023-01-21T13:55:13.039Z,1.60
2023-01-21T14:00:15.923Z,1.40
2023-01-21T14:05:34.639Z,2.30
2023-01-21T14:10:57.986Z,2.40
2023-01-21T14:16:09.790Z,2.13
2023-01-21T14:21:45.726Z,1.60
2023-01-21T14:26:51.317Z,2.00
2023-01-21T14:32:21.722Z,2.33
2023-01-21T14:37:45.550Z,1.90
2023-01-21T14:42:50.474Z,2.47
2023-01-21T14:47:54.869Z,2.67
2023-01-21T14:52:57.516Z,1.97
2023-01-21T14:58:01.821Z,3.30
2023-01-21T15:03:20.280Z,2.90
2023-01-21T15:08:28.072Z,2.33
2023-01-21T15:13:33.361Z,2.03
2023-01-21T15:18:51.056Z,2.37
2023-01-21T15:24:23.054Z,2.10
2023-01-21T15:29:34.214Z,3.23
2023-01-21T15:34:37.052Z,4.43
2023-01-21T15:39:39.559Z,5.60
2023-01-21T15:45:02.188Z,5.07
2023-01-21T15:50:49.354Z,6.00
2023-01-21T15:56:25.357Z,5.00
2023-01-21T16:01:30.993Z,3.47
2023-01-21T16:06:59.431Z,2.60
2023-01-21T16:12:39.300Z,3.90
2023-01-21T16:17:56.603Z,5.40
2023-01-21T16:23:02.662Z,3.37
2023-01-21T16:28:05.201Z,3.90
2023-01-21T16:33:15.936Z,4.63
2023-01-21T16:38:21.859Z,9.40
2023-01-21T16:43:27.361Z,4.03
2023-01-21T16:48:32.875Z,3.90
2023-01-21T16:53:35.406Z,6.20
2023-01-21T16:58:46.999Z,8.63
2023-01-21T17:03:49.687Z,6.63
2023-01-21T17:09:07.242Z,4.90
2023-01-21T17:14:10.520Z,8.17
2023-01-21T17:19:25.523Z,7.43
2023-01-21T17:24:43.893Z,7.40
2023-01-21T17:29:46.454Z,6.43
2023-01-21T17:35:12.628Z,8.27
2023-01-21T17:40:23.887Z,10.90
2023-01-21T17:45:31.546Z,12.57
2023-01-21T17:50:34.105Z,9.23
2023-01-21T17:55:38.334Z,6.47
2023-01-21T18:00:44.037Z,4.57
2023-01-21T18:05:46.913Z,7.20
2023-01-21T18:10:50.483Z,4.30
2023-01-21T18:15:54.272Z,6.70
2023-01-21T18:20:57.147Z,5.20
2023-01-21T18:25:59.896Z,4.23
2023-01-21T18:31:02.592Z,5.60
2023-01-21T18:36:06.363Z,5.10
2023-01-21T18:41:11.882Z,5.00
2023-01-21T18:46:16.484Z,5.63
2023-01-21T18:51:19.664Z,4.60
2023-01-21T18:56:22.653Z,3.97
2023-01-21T19:01:25.749Z,4.47
2023-01-21T19:06:28.982Z,4.83
2023-01-21T19:11:32.207Z,5.50
2023-01-21T19:16:35.198Z,6.90
2023-01-21T19:21:38.689Z,4.30
2023-01-21T19:26:41.931Z,3.97
2023-01-21T19:31:45.326Z,7.23
2023-01-21T19:36:48.955Z,6.47
2023-01-21T19:42:07.125Z,5.47
2023-01-21T19:47:19.648Z,5.40
2023-01-21T19:52:22.871Z,4.77
2023-01-21T19:57:25.906Z,5.73
2023-01-21T20:02:29.771Z,5.27
2023-01-21T20:07:32.768Z,4.73
2023-01-21T20:12:35.959Z,3.97
2023-01-21T20:17:46.359Z,6.33
2023-01-21T20:22:50.180Z,4.20
2023-01-21T20:27:59.589Z,4.73
2023-01-21T20:33:03.211Z,6.40
2023-01-21T20:38:11.553Z,4.47
2023-01-21T20:43:16.132Z,3.87
2023-01-21T20:48:28.358Z,4.30
2023-01-21T20:53:31.947Z,4.50
2023-01-21T20:58:35.164Z,4.60
2023-01-21T21:03:38.486Z,4.70
2023-01-21T21:08:42.189Z,4.27
2023-01-21T21:13:48.547Z,6.03
2023-01-21T21:18:52.079Z,4.87
2023-01-21T21:23:55.397Z,5.17
2023-01-21T21:29:00.545Z,3.47
2023-01-21T21:34:04.628Z,4.70
2023-01-21T21:39:08.143Z,4.97
2023-01-21T21:44:12.246Z,3.73
2023-01-21T21:49:15.739Z,6.00
2023-01-21T21:54:18.852Z,4.93
2023-01-21T21:59:21.910Z,4.83
2023-01-21T22:04:25.185Z,4.27
2023-01-21T22:09:28.455Z,4.87
2023-01-21T22:14:31.398Z,4.87
2023-01-21T22:19:36.280Z,5.30
2023-01-21T22:24:40.668Z,5.53
2023-01-21T22:29:43.498Z,3.70
2023-01-21T22:34:46.129Z,5.97
2023-01-21T22:39:48.692Z,3.97
2023-01-21T22:44:51.469Z,4.57
2023-01-21T22:49:54.066Z,5.10
2023-01-21T22:54:56.626Z,3.17
2023-01-21T23:00:01.033Z,3.07
2023-01-21T23:05:05.045Z,3.63
2023-01-21T23:10:07.918Z,4.17
2023-01-21T23:15:10.711Z,5.30
2023-01-21T23:20:13.393Z,5.63
2023-01-21T23:25:15.920Z,6.07
2023-01-21T23:30:19.041Z,5.33
2023-01-21T23:35:21.751Z,5.97
2023-01-21T23:40:24.228Z,5.87
2023-01-21T23:45:26.828Z,5.37
2023-01-21T23:50:29.314Z,5.23
2023-01-21T23:55:31.827Z,6.57
